Time;durP1;ratioP1;P1;durP2;ratioP2;P2;SDS_P1;SDS_P2;PMS_P1;PMS_P2;Temp;Humidity;BMP_temperature;BMP_pressure;BME280_temperature;BME280_humidity;BME280_pressure;Samples;Min_cycle;Max_cycle;Signal;HPM_P1;HPM_P2
2023/04/14 00:01:43;;;;;;;5.20;1.50;;;;;;;18.85;37.23;100775.56;4995775;28;20759;-69
2023/04/14 00:04:08;;;;;;;4.93;1.38;;;;;;;18.82;37.30;100773.16;4981098;28;20029;-67
2023/04/14 00:06:34;;;;;;;5.55;1.70;;;;;;;18.83;37.26;100773.03;5000979;28;20188;-68
2023/04/14 00:08:59;;;;;;;4.60;1.60;;;;;;;18.82;37.38;100771.34;5002220;28;20373;-67
2023/04/14 00:11:25;;;;;;;4.95;1.63;;;;;;;18.84;37.13;100779.16;5004004;28;20065;-68
2023/04/14 00:13:50;;;;;;;5.70;1.77;;;;;;;18.80;37.41;100775.94;4992578;28;20477;-68
2023/04/14 00:16:15;;;;;;;5.57;1.87;;;;;;;18.79;36.99;100768.97;5001112;28;20049;-68
2023/04/14 00:18:40;;;;;;;4.78;1.67;;;;;;;18.77;37.26;100765.63;4993886;28;20264;-68
2023/04/14 00:21:06;;;;;;;3.97;1.70;;;;;;;18.79;37.13;100774.25;4984802;28;20034;-68
2023/04/14 00:23:31;;;;;;;5.97;1.75;;;;;;;18.78;37.08;100775.19;5003733;28;20834;-68
2023/04/14 00:25:56;;;;;;;5.75;1.88;;;;;;;18.75;37.23;100775.47;4993244;28;20041;-69
2023/04/14 00:28:21;;;;;;;7.50;1.88;;;;;;;18.73;37.08;100776.56;4997777;28;20061;-67
2023/04/14 00:30:47;;;;;;;5.73;1.70;;;;;;;18.76;37.25;100779.78;4983232;28;20057;-67
2023/04/14 00:33:12;;;;;;;4.90;1.83;;;;;;;18.75;37.01;100783.38;4989148;28;20260;-68
2023/04/14 00:35:37;;;;;;;4.68;1.83;;;;;;;18.75;36.98;100778.09;4984159;28;20053;-68
2023/04/14 00:38:02;;;;;;;4.60;1.65;;;;;;;18.72;37.02;100778.34;4980726;28;20060;-68
2023/04/14 00:40:28;;;;;;;5.00;1.80;;;;;;;18.72;36.88;100773.06;5003862;28;20553;-68
2023/04/14 00:42:54;;;;;;;5.07;1.75;;;;;;;18.72;37.01;100782.81;5003568;28;20282;-68
2023/04/14 00:45:19;;;;;;;5.60;1.85;;;;;;;18.71;37.00;100778.47;4990744;28;20085;-69
2023/04/14 00:47:46;;;;;;;4.50;1.50;;;;;;;18.72;36.80;100780.16;4984200;28;20034;-68
2023/04/14 00:50:13;;;;;;;4.82;1.60;;;;;;;18.69;36.88;100778.63;4983775;28;20113;-68
2023/04/14 00:52:41;;;;;;;4.50;1.80;;;;;;;18.70;36.71;100779.47;4983649;28;20066;-68
2023/04/14 00:55:07;;;;;;;4.47;1.73;;;;;;;18.68;36.93;100783.06;4983850;28;20489;-69
2023/04/14 00:57:33;;;;;;;5.50;1.80;;;;;;;18.68;36.80;100784.88;4984338;28;20026;-69
2023/04/14 01:00:00;;;;;;;4.53;1.85;;;;;;;18.65;36.94;100783.31;4997036;28;20467;-68
2023/04/14 01:02:25;;;;;;;5.30;1.90;;;;;;;18.64;36.74;100783.44;5003057;28;20034;-69
2023/04/14 01:04:51;;;;;;;5.10;2.17;;;;;;;18.63;36.94;100790.53;5003410;28;20372;-69
2023/04/14 01:07:22;;;;;;;4.15;1.48;;;;;;;18.63;36.93;100790.53;4971318;28;20052;-68
2023/04/14 01:09:47;;;;;;;6.65;1.98;;;;;;;18.60;36.96;100790.81;5002544;28;20133;-68
2023/04/14 01:12:50;;;;;;;4.70;1.65;;;;;;;18.63;36.90;100797.63;4994675;28;20117;-66
2023/04/14 01:15:31;;;;;;;4.53;1.70;;;;;;;18.62;37.00;100796.78;4991415;28;20026;-67
2023/04/14 01:18:05;;;;;;;6.32;1.60;;;;;;;18.63;36.77;100801.09;4997509;28;20372;-68
2023/04/14 01:20:40;;;;;;;4.43;1.60;;;;;;;18.64;36.98;100815.13;4987443;28;20113;-68
2023/04/14 01:23:16;;;;;;;5.28;1.55;;;;;;;18.62;36.80;100799.41;4983382;28;20085;-69
2023/04/14 01:25:55;;;;;;;5.22;1.80;;;;;;;18.60;36.74;100792.63;5000180;28;20034;-69
2023/04/14 01:29:05;;;;;;;5.57;1.90;;;;;;;18.61;36.66;100802.19;5000746;28;20038;-68
2023/04/14 01:31:38;;;;;;;4.65;1.80;;;;;;;18.61;37.15;100794.25;4987042;28;20394;-68
2023/04/14 01:34:15;;;;;;;5.03;1.80;;;;;;;18.60;36.62;100796.06;4987758;28;20087;-69
2023/04/14 01:36:43;;;;;;;4.50;1.80;;;;;;;18.59;36.87;100806.75;4976861;28;20458;-68
2023/04/14 01:39:13;;;;;;;4.05;1.85;;;;;;;18.58;36.58;100805.94;4984645;28;20045;-68
2023/04/14 01:41:43;;;;;;;4.95;1.80;;;;;;;18.59;36.54;100809.41;5002615;28;20030;-69
2023/04/14 01:44:09;;;;;;;4.55;1.70;;;;;;;18.57;36.67;100809.53;5000325;28;20401;-68
2023/04/14 01:46:36;;;;;;;5.43;1.67;;;;;;;18.56;36.74;100809.66;4965158;28;20121;-68
2023/04/14 01:49:02;;;;;;;7.85;2.20;;;;;;;18.55;36.54;100816.75;4990174;28;20117;-69
2023/04/14 01:51:30;;;;;;;5.22;1.98;;;;;;;18.54;36.59;100816.88;5001927;28;20498;-69
2023/04/14 01:53:58;;;;;;;5.15;1.88;;;;;;;18.55;36.48;100815.88;5002602;28;20053;-69
2023/04/14 01:56:25;;;;;;;5.85;1.98;;;;;;;18.55;36.48;100818.53;5002105;28;20034;-68
2023/04/14 01:58:54;;;;;;;4.40;1.90;;;;;;;18.54;36.63;100816.88;5002235;28;20120;-69
2023/04/14 02:01:19;;;;;;;4.22;1.70;;;;;;;18.53;36.37;100817.81;5002365;28;20121;-69
2023/04/14 02:03:48;;;;;;;5.38;1.95;;;;;;;18.52;36.63;100824.06;5002249;28;20116;-69
2023/04/14 02:06:15;;;;;;;7.45;1.75;;;;;;;18.52;36.73;100816.16;5000376;28;20052;-70
2023/04/14 02:08:42;;;;;;;4.53;1.85;;;;;;;18.49;36.47;100812.81;4988867;28;20497;-68
2023/04/14 02:11:08;;;;;;;5.82;1.83;;;;;;;18.49;36.26;100818.09;4990417;28;20125;-69
2023/04/14 02:13:34;;;;;;;5.60;1.90;;;;;;;18.49;36.43;100817.25;4998795;28;20080;-69
2023/04/14 02:16:01;;;;;;;3.70;1.67;;;;;;;18.50;36.37;100824.22;4972884;28;20594;-69
2023/04/14 02:18:28;;;;;;;5.25;1.90;;;;;;;18.46;36.32;100820.97;4984221;28;20068;-68
2023/04/14 02:20:55;;;;;;;4.30;1.60;;;;;;;18.48;36.33;100828.75;4967126;28;20487;-68
2023/04/14 02:23:21;;;;;;;5.60;2.28;;;;;;;18.48;36.41;100832.25;4994553;28;20053;-68
2023/04/14 02:25:54;;;;;;;4.38;1.80;;;;;;;18.46;36.27;100825.44;4982065;28;20058;-69
2023/04/14 02:28:25;;;;;;;4.47;1.92;;;;;;;18.44;36.28;100830.84;4982709;28;20061;-68
2023/04/14 02:30:55;;;;;;;4.60;1.60;;;;;;;18.43;36.35;100825.69;4982510;28;20038;-69
2023/04/14 02:33:26;;;;;;;4.88;1.70;;;;;;;18.43;36.64;100829.16;4995040;28;20030;-68
2023/04/14 02:35:59;;;;;;;5.07;1.85;;;;;;;18.41;36.14;100827.63;4986576;28;20041;-68
2023/04/14 02:38:41;;;;;;;5.32;1.70;;;;;;;18.43;36.42;100833.59;4985219;28;20042;-69
2023/04/14 02:41:11;;;;;;;4.10;1.50;;;;;;;18.42;36.40;100829.28;4991836;28;20029;-68
2023/04/14 02:43:47;;;;;;;4.32;1.70;;;;;;;18.40;36.14;100839.94;4984926;28;20038;-68
2023/04/14 02:46:16;;;;;;;4.80;2.03;;;;;;;18.40;36.35;100841.75;4988073;28;20454;-68
2023/04/14 02:48:45;;;;;;;5.55;1.83;;;;;;;18.42;36.29;100845.97;4981882;28;20061;-68
2023/04/14 02:51:13;;;;;;;5.32;2.00;;;;;;;18.41;36.17;100843.44;4990740;28;20045;-69
2023/04/14 02:53:39;;;;;;;4.82;1.73;;;;;;;18.42;36.28;100850.38;4991211;28;20033;-69
2023/04/14 02:56:06;;;;;;;5.00;1.60;;;;;;;18.39;36.34;100833.03;4985602;28;20030;-68
2023/04/14 02:58:32;;;;;;;4.68;1.80;;;;;;;18.40;36.18;100839.13;4992120;28;20038;-69
2023/04/14 03:00:58;;;;;;;4.07;1.70;;;;;;;18.39;36.22;100840.94;4969924;28;20546;-67
2023/04/14 03:03:25;;;;;;;5.28;1.80;;;;;;;18.40;36.40;100839.94;4995416;28;20505;-68
2023/04/14 03:05:50;;;;;;;5.25;1.90;;;;;;;18.38;36.26;100841.06;4994537;28;20049;-67
2023/04/14 03:08:17;;;;;;;4.95;2.25;;;;;;;18.38;36.05;100844.53;5001405;28;20026;-67
2023/04/14 03:10:45;;;;;;;6.60;2.15;;;;;;;18.37;35.94;100839.38;5001040;28;20037;-67
2023/04/14 03:13:12;;;;;;;4.70;1.70;;;;;;;18.36;36.10;100849.09;4990270;28;20023;-69
2023/04/14 03:15:37;;;;;;;5.00;1.70;;;;;;;18.36;35.88;100853.50;4981736;28;20073;-67
2023/04/14 03:18:04;;;;;;;3.95;1.60;;;;;;;18.36;35.91;100848.25;4988906;28;20034;-68
2023/04/14 03:20:31;;;;;;;5.70;2.08;;;;;;;18.34;36.00;100847.53;4981575;28;20030;-68
2023/04/14 03:23:00;;;;;;;5.50;1.83;;;;;;;18.31;36.07;100843.38;4988914;28;20133;-69
2023/04/14 03:25:31;;;;;;;5.78;1.63;;;;;;;18.30;36.04;100839.88;5000916;28;20042;-67
2023/04/14 03:27:59;;;;;;;4.53;1.63;;;;;;;18.27;36.22;100840.13;4996545;28;20394;-67
2023/04/14 03:30:29;;;;;;;3.97;1.70;;;;;;;18.30;36.01;100847.78;4992386;28;20033;-68
2023/04/14 03:32:59;;;;;;;3.63;1.50;;;;;;;18.32;36.12;100852.94;4983411;28;21027;-68
2023/04/14 03:35:26;;;;;;;5.93;1.70;;;;;;;18.32;36.15;100845.03;4981375;28;20054;-68
2023/04/14 03:37:58;;;;;;;4.75;1.80;;;;;;;18.29;35.93;100848.78;4987722;28;20042;-68
2023/04/14 03:40:29;;;;;;;6.40;1.88;;;;;;;18.28;36.01;100849.72;4984915;28;20034;-67
2023/04/14 03:42:57;;;;;;;4.43;1.73;;;;;;;18.31;35.86;100857.38;4981462;28;20125;-67
2023/04/14 03:45:23;;;;;;;3.63;1.50;;;;;;;18.30;36.22;100855.69;4992995;28;20033;-70
2023/04/14 03:47:48;;;;;;;4.88;1.67;;;;;;;18.30;36.05;100855.69;5004492;28;20083;-68
2023/04/14 03:50:17;;;;;;;4.78;1.80;;;;;;;18.29;35.89;100858.47;4987177;28;21000;-68
2023/04/14 03:52:44;;;;;;;5.68;2.10;;;;;;;18.28;36.14;100854.16;4987432;28;20062;-67
2023/04/14 03:55:11;;;;;;;4.03;1.50;;;;;;;18.27;35.76;100852.47;4998694;28;20069;-68
2023/04/14 03:57:38;;;;;;;3.92;1.52;;;;;;;18.27;36.03;100852.47;4997752;28;20033;-67
2023/04/14 04:00:07;;;;;;;4.38;1.63;;;;;;;18.25;35.82;100857.88;4986041;28;20121;-68
2023/04/14 04:02:34;;;;;;;4.40;1.90;;;;;;;18.25;36.13;100859.69;5000371;28;20037;-69
2023/04/14 04:05:00;;;;;;;5.00;1.77;;;;;;;18.24;35.70;100861.47;4997914;28;20065;-69
2023/04/14 04:07:27;;;;;;;4.88;1.83;;;;;;;18.23;36.05;100861.59;4993601;28;20045;-69
2023/04/14 04:09:55;;;;;;;5.38;1.50;;;;;;;18.22;35.91;100866.03;5004106;28;20038;-68
2023/04/14 04:12:23;;;;;;;3.90;1.40;;;;;;;18.23;35.78;100861.59;4976651;28;20525;-67
2023/04/14 04:14:48;;;;;;;5.65;1.77;;;;;;;18.21;35.95;100864.38;5003645;28;20036;-67
2023/04/14 04:17:17;;;;;;;4.88;1.83;;;;;;;18.21;36.09;100864.38;5002618;28;20462;-68
2023/04/14 04:19:44;;;;;;;4.35;1.60;;;;;;;18.20;35.99;100859.22;4995373;28;20030;-67
2023/04/14 04:22:13;;;;;;;3.55;1.38;;;;;;;18.21;36.12;100867.00;4986861;28;20050;-68
2023/04/14 04:24:39;;;;;;;6.15;1.83;;;;;;;18.20;36.05;100860.06;4987121;28;20513;-67
2023/04/14 04:27:05;;;;;;;5.40;1.92;;;;;;;18.22;36.04;100865.22;4993825;28;20037;-67
2023/04/14 04:29:31;;;;;;;6.45;1.90;;;;;;;18.20;35.85;100862.72;4989716;28;20121;-68
2023/04/14 04:31:56;;;;;;;4.97;1.88;;;;;;;18.20;35.73;100869.75;4984395;28;20181;-67
2023/04/14 04:34:24;;;;;;;5.32;1.90;;;;;;;18.19;35.76;100866.28;4994840;28;20030;-67
2023/04/14 04:36:51;;;;;;;6.18;1.85;;;;;;;18.19;35.98;100871.56;4997256;28;20030;-67
2023/04/14 04:39:16;;;;;;;4.97;1.80;;;;;;;18.17;35.75;100872.69;4997081;28;20129;-69
2023/04/14 04:41:41;;;;;;;4.63;1.75;;;;;;;18.18;36.00;100877.78;4999145;28;20191;-69
2023/04/14 04:44:07;;;;;;;3.35;1.48;;;;;;;18.17;36.02;100870.03;5003182;28;20033;-68
2023/04/14 04:46:44;;;;;;;5.68;1.60;;;;;;;18.18;35.97;100869.88;5003821;28;20049;-68
2023/04/14 04:49:10;;;;;;;5.18;1.77;;;;;;;18.17;35.79;100877.94;4980949;28;20129;-67
2023/04/14 04:51:35;;;;;;;4.13;1.90;;;;;;;18.12;36.10;100873.03;4993570;28;20212;-67
2023/04/14 04:54:00;;;;;;;5.63;2.07;;;;;;;18.09;36.27;100874.13;4989723;28;20034;-67
2023/04/14 04:56:26;;;;;;;3.58;1.50;;;;;;;18.11;36.63;100876.63;4985910;28;20896;-67
2023/04/14 04:58:52;;;;;;;4.18;1.95;;;;;;;18.10;36.85;100873.16;5003061;28;20025;-69
2023/04/14 05:01:20;;;;;;;3.58;1.35;;;;;;;18.13;36.91;100872.06;4999493;28;20051;-68
2023/04/14 05:03:45;;;;;;;3.63;1.35;;;;;;;18.15;37.05;100870.16;4983870;28;20036;-69
2023/04/14 05:06:11;;;;;;;5.63;1.50;;;;;;;18.18;37.19;100874.34;4984641;28;20030;-68
2023/04/14 05:08:36;;;;;;;4.80;1.40;;;;;;;18.22;37.18;100867.84;4983835;28;20030;-68
2023/04/14 05:11:02;;;;;;;4.72;1.63;;;;;;;18.24;37.25;100872.03;4997077;28;20034;-69
2023/04/14 05:13:27;;;;;;;3.88;1.38;;;;;;;18.27;36.95;100869.16;4988930;28;20041;-68
2023/04/14 05:16:02;;;;;;;4.13;1.55;;;;;;;18.34;36.93;100872.13;4983801;28;20120;-68
2023/04/14 05:18:27;;;;;;;4.28;1.48;;;;;;;18.38;36.75;100864.81;4983428;28;20042;-68
2023/04/14 05:20:53;;;;;;;4.53;1.50;;;;;;;18.41;36.72;100865.38;4983508;28;20041;-68
2023/04/14 05:23:18;;;;;;;3.47;1.37;;;;;;;18.45;36.63;100864.19;4986807;28;20404;-67
2023/04/14 05:25:43;;;;;;;3.55;1.42;;;;;;;18.49;36.82;100864.75;4984641;28;20302;-67
2023/04/14 05:28:08;;;;;;;3.25;1.20;;;;;;;18.52;36.73;100869.78;4985643;28;20049;-68
2023/04/14 05:30:34;;;;;;;4.55;1.40;;;;;;;18.54;36.57;100869.66;5002955;28;20030;-68
2023/04/14 05:32:59;;;;;;;4.03;1.50;;;;;;;18.56;36.62;100867.72;5002974;28;20139;-69
2023/04/14 05:35:24;;;;;;;3.70;1.30;;;;;;;18.54;36.36;100859.94;4986084;28;20038;-68
2023/04/14 05:37:50;;;;;;;3.72;1.52;;;;;;;18.60;36.52;100869.16;5000407;28;20038;-69
2023/04/14 05:40:15;;;;;;;4.63;1.38;;;;;;;18.55;36.69;100860.75;5002621;28;20040;-69
2023/04/14 05:42:41;;;;;;;4.33;1.73;;;;;;;18.62;36.50;100868.03;5000244;28;21319;-69
2023/04/14 05:45:07;;;;;;;5.55;1.55;;;;;;;18.63;36.47;100868.91;4993709;28;20755;-68
2023/04/14 05:47:32;;;;;;;3.40;1.30;;;;;;;18.62;36.51;100867.22;5002465;28;20033;-68
2023/04/14 05:49:57;;;;;;;3.30;1.23;;;;;;;18.62;36.80;100867.22;4989275;28;20074;-69
2023/04/14 05:52:23;;;;;;;3.25;1.38;;;;;;;18.66;36.46;100868.66;4982404;28;20353;-68
2023/04/14 05:54:48;;;;;;;3.63;1.45;;;;;;;18.66;36.57;100863.38;4983358;28;20026;-66
2023/04/14 05:57:13;;;;;;;4.88;1.90;;;;;;;18.69;36.84;100865.72;4986638;28;20560;-67
2023/04/14 05:59:40;;;;;;;4.32;1.52;;;;;;;18.73;36.50;100866.34;4989406;28;20489;-67
2023/04/14 06:02:06;;;;;;;4.97;1.70;;;;;;;18.74;36.58;100873.25;4982602;28;20045;-67
2023/04/14 06:04:32;;;;;;;4.15;1.45;;;;;;;18.74;36.67;100875.91;4986334;28;20034;-66
2023/04/14 06:06:58;;;;;;;4.00;1.35;;;;;;;18.77;36.85;100878.28;4987570;28;20052;-66
2023/04/14 06:09:23;;;;;;;4.40;1.52;;;;;;;18.76;37.07;100881.91;4992979;28;20042;-66
2023/04/14 06:11:48;;;;;;;3.80;1.27;;;;;;;18.77;37.01;100875.66;4982297;28;20409;-67
2023/04/14 06:14:13;;;;;;;4.45;1.58;;;;;;;18.76;37.07;100874.00;4998939;28;20030;-67
2023/04/14 06:16:39;;;;;;;3.67;1.35;;;;;;;18.77;37.28;100876.50;4991744;28;20081;-66
2023/04/14 06:19:04;;;;;;;4.00;1.42;;;;;;;18.76;37.19;100871.34;4982644;28;20030;-67
2023/04/14 06:21:30;;;;;;;3.92;1.55;;;;;;;18.78;37.07;100870.25;4989511;28;20026;-66
2023/04/14 06:23:55;;;;;;;3.83;1.48;;;;;;;18.79;37.40;100876.38;5001591;28;20042;-67
2023/04/14 06:26:21;;;;;;;4.50;1.40;;;;;;;18.78;37.35;100862.31;5001671;28;20103;-66
2023/04/14 06:28:46;;;;;;;4.97;1.80;;;;;;;18.78;37.45;100864.97;4988277;28;20479;-68
2023/04/14 06:31:13;;;;;;;5.90;1.40;;;;;;;18.81;37.85;100866.53;5000442;28;20041;-65
2023/04/14 06:33:38;;;;;;;4.03;1.40;;;;;;;18.82;37.73;100860.28;4993824;28;20026;-67
2023/04/14 06:36:04;;;;;;;4.03;1.50;;;;;;;18.83;37.62;100854.88;4981972;28;20407;-66
2023/04/14 06:38:29;;;;;;;4.35;1.40;;;;;;;18.87;37.65;100863.41;4982153;28;20084;-67
2023/04/14 06:40:54;;;;;;;4.88;1.58;;;;;;;18.87;37.70;100855.47;4997651;28;20038;-66
2023/04/14 06:43:20;;;;;;;4.63;1.60;;;;;;;18.89;37.66;100856.19;4997420;28;20073;-67
2023/04/14 06:45:46;;;;;;;3.90;1.48;;;;;;;18.91;37.79;100848.13;4996145;28;20040;-68
2023/04/14 06:48:12;;;;;;;4.38;1.60;;;;;;;18.90;38.01;100844.66;4983974;28;20030;-68
2023/04/14 06:50:37;;;;;;;4.68;1.40;;;;;;;18.92;37.83;100841.91;5001508;28;20068;-67
2023/04/14 06:53:04;;;;;;;7.85;1.35;;;;;;;18.97;37.76;100842.34;4990975;28;20121;-67
2023/04/14 06:55:30;;;;;;;5.55;1.55;;;;;;;19.06;37.27;100840.69;4999830;28;20029;-68
2023/04/14 06:57:55;;;;;;;7.65;1.50;;;;;;;19.14;37.35;100846.19;4985935;28;20363;-66
2023/04/14 07:00:21;;;;;;;4.00;1.47;;;;;;;19.16;37.20;100847.72;4985663;28;20030;-68
2023/04/14 07:02:46;;;;;;;3.55;1.52;;;;;;;19.12;37.03;100837.53;5000427;28;20354;-68
2023/04/14 07:05:12;;;;;;;5.43;1.93;;;;;;;19.16;37.26;100837.16;5000657;28;20048;-68
2023/04/14 07:07:39;;;;;;;5.35;1.70;;;;;;;19.14;37.49;100828.53;5000871;28;20290;-69
2023/04/14 07:10:05;;;;;;;4.10;1.48;;;;;;;19.17;37.57;100838.00;4980413;28;20029;-66
2023/04/14 07:12:30;;;;;;;5.78;1.60;;;;;;;19.11;37.67;100828.78;4980773;28;20026;-66
2023/04/14 07:14:55;;;;;;;3.55;1.30;;;;;;;19.14;37.78;100831.16;4981918;28;20037;-66
2023/04/14 07:17:20;;;;;;;4.93;1.57;;;;;;;19.15;37.50;100826.72;4981332;28;20035;-66
2023/04/14 07:19:46;;;;;;;3.37;1.30;;;;;;;19.14;37.72;100828.53;4993634;28;20275;-65
2023/04/14 07:22:11;;;;;;;4.50;1.60;;;;;;;19.15;37.83;100829.34;5000004;28;20291;-65
2023/04/14 07:24:37;;;;;;;3.90;1.15;;;;;;;19.15;37.82;100827.56;5004204;28;20461;-72
2023/04/14 07:27:03;;;;;;;4.40;1.50;;;;;;;19.21;37.60;100829.66;4990552;28;20557;-72
2023/04/14 07:29:29;;;;;;;4.97;1.33;;;;;;;19.24;37.59;100820.63;4985049;28;20034;-73
2023/04/14 07:31:54;;;;;;;4.82;1.40;;;;;;;19.22;37.55;100814.66;4994909;28;20456;-73
2023/04/14 07:34:19;;;;;;;4.47;1.27;;;;;;;19.24;37.54;100810.06;4998632;28;20044;-72
2023/04/14 07:36:45;;;;;;;3.33;1.38;;;;;;;19.29;37.61;100814.97;4972768;28;20033;-74
2023/04/14 07:39:10;;;;;;;3.88;1.30;;;;;;;19.34;37.63;100815.38;4997648;28;20479;-69
2023/04/14 07:41:35;;;;;;;5.43;1.80;;;;;;;19.34;37.49;100815.38;5004352;28;20422;-69
2023/04/14 07:44:00;;;;;;;6.03;1.40;;;;;;;19.35;37.25;100809.16;5004201;28;20320;-71
2023/04/14 07:46:26;;;;;;;6.23;1.53;;;;;;;19.35;37.32;100807.31;4996166;28;20290;-69
2023/04/14 07:48:51;;;;;;;5.88;1.58;;;;;;;19.38;37.19;100808.88;5002443;28;20736;-69
2023/04/14 07:51:17;;;;;;;5.28;1.45;;;;;;;19.38;37.29;100814.16;5000675;28;20122;-70
2023/04/14 07:53:43;;;;;;;5.40;1.55;;;;;;;19.36;37.48;100811.66;4992921;28;20410;-70
2023/04/14 07:56:10;;;;;;;3.40;1.40;;;;;;;19.36;37.57;100808.19;4986993;28;20093;-67
2023/04/14 07:58:35;;;;;;;4.65;1.50;;;;;;;19.32;37.59;100810.25;4985154;28;20033;-67
2023/04/14 08:01:01;;;;;;;4.38;1.60;;;;;;;19.29;37.69;100813.13;5002669;28;20034;-68
2023/04/14 08:03:26;;;;;;;7.45;1.63;;;;;;;19.27;37.84;100809.81;4997807;28;20062;-67
2023/04/14 08:05:52;;;;;;;6.10;1.70;;;;;;;19.28;37.84;100816.78;4999735;28;20562;-66
2023/04/14 08:08:17;;;;;;;5.85;1.42;;;;;;;19.33;37.65;100811.09;5002586;28;20037;-67
2023/04/14 08:10:42;;;;;;;7.13;1.43;;;;;;;19.29;37.70;100807.03;5004148;28;20125;-68
2023/04/14 08:13:07;;;;;;;5.53;1.40;;;;;;;19.26;37.95;100807.28;4994345;28;20280;-66
2023/04/14 08:15:33;;;;;;;4.88;1.48;;;;;;;19.26;38.09;100812.59;4984045;28;20034;-66
2023/04/14 08:17:58;;;;;;;3.47;1.30;;;;;;;19.23;38.14;100807.56;4995489;28;20534;-67
2023/04/14 08:20:23;;;;;;;6.25;1.60;;;;;;;19.21;38.26;100813.81;4985310;28;20106;-66
2023/04/14 08:22:49;;;;;;;3.20;1.35;;;;;;;19.21;38.18;100803.22;4983311;28;20269;-65
2023/04/14 08:25:14;;;;;;;3.47;1.37;;;;;;;19.20;38.51;100803.38;4998058;28;20034;-67
2023/04/14 08:27:40;;;;;;;3.22;1.20;;;;;;;19.22;38.15;100806.72;4986953;28;20264;-68
2023/04/14 08:30:06;;;;;;;5.60;1.30;;;;;;;19.22;38.38;100806.72;4967773;28;20026;-68
2023/04/14 08:32:32;;;;;;;3.88;1.30;;;;;;;19.19;38.25;100799.91;4995899;28;20399;-68
2023/04/14 08:34:58;;;;;;;3.85;1.45;;;;;;;19.20;38.54;100809.50;5003454;28;20042;-68
2023/04/14 08:37:23;;;;;;;4.13;1.33;;;;;;;19.21;38.39;100802.41;4983202;28;20034;-68
2023/04/14 08:39:48;;;;;;;4.00;1.30;;;;;;;19.17;38.42;100798.38;4994236;28;20030;-68
2023/04/14 08:42:18;;;;;;;4.80;1.20;;;;;;;19.21;38.47;100812.97;4996491;28;20092;-66
2023/04/14 08:44:43;;;;;;;3.65;1.45;;;;;;;19.26;38.34;100804.66;4984594;28;20264;-67
2023/04/14 08:47:09;;;;;;;4.05;1.50;;;;;;;19.29;38.14;100796.47;4996383;28;20045;-68
2023/04/14 08:49:42;;;;;;;7.25;1.55;;;;;;;19.29;38.35;100801.75;4989428;28;20036;-68
2023/04/14 08:52:11;;;;;;;4.32;1.48;;;;;;;19.25;38.20;100801.19;4993481;28;20491;-67
2023/04/14 08:54:41;;;;;;;3.67;1.20;;;;;;;19.22;38.46;100801.44;4983899;28;20061;-69
2023/04/14 08:57:11;;;;;;;4.05;1.25;;;;;;;19.21;38.36;100805.06;5000117;28;20454;-69
2023/04/14 08:59:37;;;;;;;10.15;1.85;;;;;;;19.21;38.25;100805.88;5002252;28;20037;-71
2023/04/14 09:02:05;;;;;;;3.67;1.17;;;;;;;19.19;38.40;100810.47;4985941;28;20393;-67
2023/04/14 09:04:32;;;;;;;4.40;1.13;;;;;;;19.18;38.51;100807.94;5002583;28;20065;-67
2023/04/14 09:06:58;;;;;;;5.22;1.10;;;;;;;19.14;38.33;100802.09;4998043;28;20659;-67
2023/04/14 09:09:23;;;;;;;3.20;1.10;;;;;;;19.16;38.73;100804.63;4982975;28;20034;-68
2023/04/14 09:11:50;;;;;;;4.80;1.30;;;;;;;19.13;38.47;100802.25;4997801;28;20035;-69
2023/04/14 09:14:17;;;;;;;3.70;1.30;;;;;;;19.14;38.57;100801.28;4988492;28;20088;-67
2023/04/14 09:16:43;;;;;;;3.53;1.08;;;;;;;19.14;38.58;100799.47;4965251;28;20034;-65
2023/04/14 09:19:08;;;;;;;3.72;1.02;;;;;;;19.13;38.57;100795.13;4982864;28;20109;-65
2023/04/14 09:21:35;;;;;;;5.60;1.27;;;;;;;19.11;38.65;100791.81;5001782;28;20081;-67
2023/04/14 09:24:00;;;;;;;3.97;1.25;;;;;;;19.15;38.63;100800.28;4984478;28;20379;-68
2023/04/14 09:26:27;;;;;;;5.78;1.20;;;;;;;19.13;38.64;100791.66;4982541;28;20044;-67
2023/04/14 09:28:52;;;;;;;6.68;1.45;;;;;;;19.10;38.65;100792.75;4986784;28;20030;-68
2023/04/14 09:31:18;;;;;;;3.42;1.17;;;;;;;19.12;38.75;100784.72;4987437;28;20040;-66
2023/04/14 09:33:47;;;;;;;3.70;1.30;;;;;;;19.12;38.74;100795.28;4997082;28;20431;-67
2023/04/14 09:36:23;;;;;;;4.45;1.40;;;;;;;19.09;38.42;100788.47;4984296;28;20034;-66
2023/04/14 09:38:50;;;;;;;4.97;1.38;;;;;;;19.10;38.58;100784.84;4982575;28;20145;-65
2023/04/14 09:41:21;;;;;;;4.47;1.15;;;;;;;19.09;38.42;100774.41;4981605;28;20487;-69
2023/04/14 09:43:46;;;;;;;3.25;1.27;;;;;;;19.11;38.74;100767.19;4986219;28;20129;-66
2023/04/14 09:46:12;;;;;;;2.47;1.17;;;;;;;19.10;38.67;100778.72;4997241;28;20145;-68
2023/04/14 09:48:59;;;;;;;4.95;1.13;;;;;;;19.12;38.47;100776.78;4989066;28;20034;-66
2023/04/14 09:51:28;;;;;;;4.30;0.90;;;;;;;19.12;38.57;100775.00;4988263;28;20026;-67
2023/04/14 09:53:55;;;;;;;3.30;1.10;;;;;;;19.11;38.65;100769.84;4982056;28;20072;-68
2023/04/14 09:56:26;;;;;;;3.17;1.10;;;;;;;19.16;38.32;100755.25;4988946;28;20038;-69
2023/04/14 09:58:59;;;;;;;4.03;1.20;;;;;;;19.35;38.13;100761.59;4991583;28;20074;-69
2023/04/14 10:01:31;;;;;;;3.63;1.30;;;;;;;19.45;38.01;100758.97;4990100;28;20545;-72
2023/04/14 10:03:56;;;;;;;4.38;1.10;;;;;;;19.48;37.88;100761.34;4985030;28;20038;-72
2023/04/14 10:06:23;;;;;;;5.57;1.35;;;;;;;19.35;37.98;100759.75;4989484;28;21082;-64
2023/04/14 10:08:54;;;;;;;3.40;1.10;;;;;;;19.23;38.26;100754.72;4982104;28;20038;-66
2023/04/14 10:11:24;;;;;;;4.35;1.33;;;;;;;19.17;38.27;100750.81;4993905;28;20163;-68
2023/04/14 10:13:52;;;;;;;3.88;0.90;;;;;;;19.16;38.52;100749.13;4985857;28;20486;-67
2023/04/14 10:16:17;;;;;;;3.22;1.10;;;;;;;19.15;38.37;100742.19;5000722;28;20116;-68
2023/04/14 10:18:43;;;;;;;3.10;0.98;;;;;;;19.15;38.35;100736.91;4987098;28;20117;-67
2023/04/14 10:21:10;;;;;;;4.90;0.90;;;;;;;19.15;38.46;100739.53;4985478;28;20136;-67
2023/04/14 10:23:37;;;;;;;4.25;1.33;;;;;;;19.18;38.56;100739.25;4991662;28;20446;-68
2023/04/14 10:26:03;;;;;;;4.22;1.30;;;;;;;19.16;38.69;100739.41;4987083;28;20029;-69
2023/04/14 10:28:30;;;;;;;5.50;1.50;;;;;;;19.15;38.84;100735.09;4989222;28;20038;-67
2023/04/14 10:30:56;;;;;;;2.95;0.98;;;;;;;19.16;38.71;100731.47;4989590;28;20035;-67
2023/04/14 10:33:22;;;;;;;2.25;1.20;;;;;;;19.15;38.76;100728.97;4996460;28;20038;-68
2023/04/14 10:35:55;;;;;;;3.47;1.08;;;;;;;19.16;38.43;100730.66;4987235;28;20053;-70
2023/04/14 10:38:20;;;;;;;4.78;1.10;;;;;;;19.19;38.65;100730.38;4981529;28;20080;-68
2023/04/14 10:40:47;;;;;;;5.22;1.10;;;;;;;19.18;38.58;100719.00;4991348;28;20034;-68
2023/04/14 10:43:12;;;;;;;3.63;1.05;;;;;;;19.18;38.58;100719.00;4995806;28;20396;-68
2023/04/14 10:45:54;;;;;;;3.80;1.02;;;;;;;19.17;38.72;100717.31;4981628;28;20050;-68
2023/04/14 10:48:23;;;;;;;3.92;1.05;;;;;;;19.21;38.75;100728.44;4981418;28;20455;-66
2023/04/14 10:50:48;;;;;;;3.13;0.98;;;;;;;19.25;38.72;100718.44;4975586;28;20042;-68
2023/04/14 10:53:13;;;;;;;5.57;1.10;;;;;;;19.18;38.62;100715.50;4985509;28;20038;-68
2023/04/14 10:55:45;;;;;;;4.72;1.10;;;;;;;19.17;38.50;100705.91;4972404;28;20038;-68
2023/04/14 10:58:19;;;;;;;7.25;1.20;;;;;;;19.18;38.81;100710.22;4995299;28;20037;-68
2023/04/14 11:00:45;;;;;;;5.45;1.10;;;;;;;19.15;39.00;100711.34;4991691;28;20037;-68
2023/04/14 11:03:11;;;;;;;2.95;0.80;;;;;;;19.12;39.00;100706.31;4986725;28;20038;-69
2023/04/14 11:05:46;;;;;;;3.42;1.00;;;;;;;19.11;39.03;100707.28;4965332;28;20034;-68
2023/04/14 11:08:14;;;;;;;3.75;0.90;;;;;;;19.13;39.04;100713.25;4981121;28;20084;-70
2023/04/14 11:10:40;;;;;;;3.72;0.93;;;;;;;19.13;39.36;100700.03;5000168;28;20025;-69
2023/04/14 11:13:10;;;;;;;3.78;1.00;;;;;;;19.14;39.26;100706.19;4998785;28;20033;-67
2023/04/14 11:15:57;;;;;;;3.35;0.80;;;;;;;19.25;38.93;100694.66;4985065;28;20042;-68
2023/04/14 11:18:28;;;;;;;3.22;1.05;;;;;;;19.21;38.70;100697.56;4986489;28;20104;-68
2023/04/14 11:21:00;;;;;;;8.63;1.10;;;;;;;19.16;38.89;100694.50;4994097;28;20575;-68
2023/04/14 11:23:26;;;;;;;3.63;1.10;;;;;;;19.11;39.12;100690.59;4999017;28;20046;-67
2023/04/14 11:25:52;;;;;;;4.40;1.00;;;;;;;19.11;39.21;100694.06;4981802;28;20613;-67